createdAt,value
2018-09-06T00:00:19.105Z,0.00
2018-09-06T00:01:19.105Z,0.00
2018-09-06T00:02:19.126Z,0.00
2018-09-06T00:03:19.106Z,0.00
2018-09-06T00:04:19.113Z,0.00
2018-09-06T00:05:19.109Z,0.00
2018-09-06T00:06:19.111Z,0.00
2018-09-06T00:07:19.106Z,0.00
2018-09-06T00:08:19.110Z,0.00
2018-09-06T00:09:19.108Z,0.00
2018-09-06T00:10:19.112Z,0.00
2018-09-06T00:11:19.113Z,0.00
2018-09-06T00:12:19.111Z,0.00
2018-09-06T00:13:19.109Z,0.00
2018-09-06T00:14:19.111Z,0.00
2018-09-06T00:15:19.109Z,0.00
2018-09-06T00:16:19.112Z,0.00
2018-09-06T00:17:19.113Z,0.00
2018-09-06T00:18:19.112Z,0.00
2018-09-06T00:19:19.114Z,0.00
2018-09-06T00:20:19.116Z,0.00
2018-09-06T00:21:19.113Z,0.00
2018-09-06T00:22:19.114Z,0.00
2018-09-06T00:23:19.114Z,0.00
2018-09-06T00:24:19.117Z,0.00
2018-09-06T00:25:19.121Z,0.00
2018-09-06T00:26:19.117Z,0.00
2018-09-06T00:27:19.116Z,0.00
2018-09-06T00:28:19.121Z,0.00
2018-09-06T00:29:19.119Z,0.00
2018-09-06T00:30:19.122Z,0.00
2018-09-06T00:31:19.119Z,0.00
2018-09-06T00:32:19.121Z,0.00
2018-09-06T00:33:19.121Z,0.00
2018-09-06T00:34:19.120Z,0.00
2018-09-06T00:35:19.121Z,0.00
2018-09-06T00:36:19.121Z,0.00
2018-09-06T00:37:19.121Z,0.00
2018-09-06T00:38:19.121Z,0.00
2018-09-06T00:39:19.124Z,0.00
2018-09-06T00:40:19.122Z,0.00
2018-09-06T00:41:19.122Z,0.00
2018-09-06T00:42:19.127Z,0.00
2018-09-06T00:43:19.122Z,0.00
2018-09-06T00:44:19.126Z,0.00
2018-09-06T00:45:19.124Z,0.00
2018-09-06T00:46:19.122Z,0.00
2018-09-06T00:47:19.124Z,0.00
2018-09-06T00:48:19.129Z,0.00
2018-09-06T00:49:19.125Z,0.00
2018-09-06T00:50:19.128Z,0.00
2018-09-06T00:51:19.123Z,0.00
2018-09-06T00:52:19.127Z,0.00
2018-09-06T00:53:19.125Z,0.00
2018-09-06T00:54:19.128Z,0.00
2018-09-06T00:55:19.125Z,0.00
2018-09-06T00:56:19.126Z,0.00
2018-09-06T00:57:19.126Z,0.00
2018-09-06T00:58:19.126Z,0.00
2018-09-06T00:59:19.127Z,0.00
2018-09-06T01:00:19.128Z,0.00
2018-09-06T01:01:19.128Z,0.00
2018-09-06T01:02:19.126Z,0.00
2018-09-06T01:03:19.128Z,0.00
2018-09-06T01:04:19.130Z,0.00
2018-09-06T01:05:19.126Z,0.00
2018-09-06T01:06:19.128Z,0.00
2018-09-06T01:07:19.126Z,0.00
2018-09-06T01:08:19.128Z,0.00
2018-09-06T01:09:19.128Z,0.00
2018-09-06T01:10:19.127Z,0.00
2018-09-06T01:11:19.129Z,0.00
2018-09-06T01:12:19.132Z,0.00
2018-09-06T01:13:19.129Z,0.00
2018-09-06T01:14:19.130Z,0.00
2018-09-06T01:15:19.130Z,0.00
2018-09-06T01:16:19.185Z,0.00
2018-09-06T01:17:19.137Z,0.00
2018-09-06T01:18:19.128Z,0.00
2018-09-06T01:19:19.138Z,0.00
2018-09-06T01:20:19.130Z,0.00
2018-09-06T01:21:19.136Z,0.00
2018-09-06T01:22:19.129Z,0.00
2018-09-06T01:23:19.131Z,0.00
2018-09-06T01:24:19.131Z,0.00
2018-09-06T01:25:19.134Z,0.00
2018-09-06T01:26:19.129Z,0.00
2018-09-06T01:27:19.130Z,0.00
2018-09-06T01:28:19.131Z,0.00
2018-09-06T01:29:19.134Z,0.00
2018-09-06T01:30:19.129Z,0.00
2018-09-06T01:31:19.132Z,0.00
2018-09-06T01:32:19.136Z,0.00
2018-09-06T01:33:19.136Z,0.00
2018-09-06T01:34:19.128Z,0.00
2018-09-06T01:35:19.133Z,0.00
2018-09-06T01:36:19.133Z,0.00
2018-09-06T01:37:19.135Z,0.00
2018-09-06T01:38:19.170Z,0.00
2018-09-06T01:39:19.134Z,0.00
2018-09-06T01:40:19.133Z,0.00
2018-09-06T01:41:19.136Z,0.00
2018-09-06T01:42:19.135Z,0.00
2018-09-06T01:43:19.134Z,0.00
2018-09-06T01:44:19.132Z,0.00
2018-09-06T01:45:19.137Z,0.00
2018-09-06T01:46:19.132Z,0.00
2018-09-06T01:47:19.132Z,0.00
2018-09-06T01:48:19.134Z,0.00
2018-09-06T01:49:19.133Z,0.00
2018-09-06T01:50:19.132Z,0.00
2018-09-06T01:51:19.130Z,0.00
2018-09-06T01:52:19.137Z,0.00
2018-09-06T01:53:19.131Z,0.00
2018-09-06T01:54:19.134Z,0.00
2018-09-06T01:55:19.130Z,0.00
2018-09-06T01:56:19.130Z,0.00
2018-09-06T01:57:19.135Z,0.00
2018-09-06T01:58:19.130Z,0.00
2018-09-06T01:59:19.129Z,0.00
2018-09-06T02:00:19.140Z,0.00
2018-09-06T02:01:19.133Z,0.00
2018-09-06T02:02:19.130Z,0.00
2018-09-06T02:03:19.133Z,0.00
2018-09-06T02:04:19.128Z,0.00
2018-09-06T02:05:19.144Z,0.00
2018-09-06T02:06:25.501Z,0.00
2018-09-06T02:07:25.404Z,0.00
2018-09-06T02:08:25.387Z,0.00
2018-09-06T02:09:25.393Z,0.00
2018-09-06T02:10:25.387Z,0.00
2018-09-06T02:11:25.388Z,0.00
2018-09-06T02:12:25.448Z,0.00
2018-09-06T02:13:25.391Z,0.00
2018-09-06T02:14:25.456Z,0.00
2018-09-06T02:15:25.387Z,0.00
2018-09-06T02:16:25.513Z,0.00
2018-09-06T02:17:25.389Z,0.00
2018-09-06T02:18:25.590Z,0.00
2018-09-06T02:19:25.384Z,0.00
2018-09-06T02:20:25.386Z,0.00
2018-09-06T02:21:25.396Z,0.00
2018-09-06T02:22:25.385Z,0.00
2018-09-06T02:23:25.388Z,0.00
2018-09-06T02:24:25.436Z,0.00
2018-09-06T02:25:25.387Z,0.00
2018-09-06T02:26:25.388Z,0.00
2018-09-06T02:27:25.385Z,0.00
2018-09-06T02:28:25.389Z,0.00
2018-09-06T02:29:25.384Z,0.00
2018-09-06T02:30:25.383Z,0.00
2018-09-06T02:31:25.409Z,0.00
2018-09-06T02:32:25.384Z,0.00
2018-09-06T02:33:25.381Z,0.00
2018-09-06T02:34:25.385Z,0.00
2018-09-06T02:35:25.382Z,0.00
2018-09-06T02:36:25.381Z,0.00
2018-09-06T02:37:25.384Z,0.00
2018-09-06T02:38:25.390Z,0.00
2018-09-06T02:39:25.382Z,0.00
2018-09-06T02:40:25.407Z,0.00
2018-09-06T02:41:25.382Z,0.00
2018-09-06T02:42:25.408Z,0.00
2018-09-06T02:43:25.379Z,0.00
2018-09-06T02:44:25.412Z,0.00
2018-09-06T02:45:25.383Z,0.00
2018-09-06T02:46:25.383Z,0.00
2018-09-06T02:47:25.380Z,0.00
2018-09-06T02:48:25.379Z,0.00
2018-09-06T02:49:25.383Z,0.00
2018-09-06T02:50:25.377Z,0.00
2018-09-06T02:51:25.382Z,0.00
2018-09-06T02:52:25.378Z,0.00
2018-09-06T02:53:25.385Z,0.00
2018-09-06T02:54:25.397Z,0.00
2018-09-06T02:55:25.376Z,0.00
2018-09-06T02:56:25.378Z,0.00
2018-09-06T02:57:25.379Z,0.00
2018-09-06T02:58:25.374Z,0.00
2018-09-06T02:59:25.408Z,0.00
2018-09-06T03:00:25.375Z,0.00
2018-09-06T03:01:25.388Z,0.00
2018-09-06T03:02:25.375Z,0.00
2018-09-06T03:03:25.381Z,0.00
2018-09-06T03:04:25.376Z,0.00
2018-09-06T03:05:25.371Z,0.00
2018-09-06T03:06:25.377Z,0.00
2018-09-06T03:07:25.385Z,0.00
2018-09-06T03:08:25.389Z,0.00
2018-09-06T03:09:25.379Z,0.00
2018-09-06T03:10:25.375Z,0.00
2018-09-06T03:11:25.372Z,0.00
2018-09-06T03:12:25.371Z,0.00
2018-09-06T03:13:25.372Z,0.00
2018-09-06T03:14:25.371Z,0.00
2018-09-06T03:15:25.437Z,0.00
2018-09-06T03:16:25.371Z,0.00
2018-09-06T03:17:25.367Z,0.00
2018-09-06T03:18:25.369Z,0.00
2018-09-06T03:19:25.382Z,0.00
2018-09-06T03:20:25.382Z,0.00
2018-09-06T03:21:25.370Z,0.00
2018-09-06T03:22:25.385Z,0.00
2018-09-06T03:23:25.390Z,0.00
2018-09-06T03:24:25.378Z,0.00
2018-09-06T03:25:25.368Z,0.00
2018-09-06T03:26:25.366Z,0.00
2018-09-06T03:27:25.365Z,0.00
2018-09-06T03:28:25.365Z,0.00
2018-09-06T03:29:25.377Z,0.00
2018-09-06T03:30:25.367Z,0.00
2018-09-06T03:31:26.965Z,0.00
2018-09-06T03:32:25.395Z,0.00
2018-09-06T03:33:25.365Z,0.00
2018-09-06T03:34:25.406Z,0.00
2018-09-06T03:35:25.362Z,0.00
2018-09-06T03:36:25.369Z,0.00
2018-09-06T03:37:25.367Z,0.00
2018-09-06T03:38:25.385Z,0.00
2018-09-06T03:39:25.377Z,0.00
2018-09-06T03:40:25.362Z,0.00
2018-09-06T03:41:25.360Z,0.00
2018-09-06T03:42:25.365Z,0.00
2018-09-06T03:43:25.358Z,0.00
2018-09-06T03:44:25.390Z,0.00
2018-09-06T03:45:25.364Z,0.00
2018-09-06T03:46:25.368Z,0.00
2018-09-06T03:47:25.361Z,0.00
2018-09-06T03:48:25.367Z,0.00
2018-09-06T03:49:25.361Z,0.00
2018-09-06T03:50:25.385Z,0.00
2018-09-06T03:51:25.361Z,0.00
2018-09-06T03:52:25.359Z,0.00
2018-09-06T03:53:25.370Z,0.00
2018-09-06T03:54:25.361Z,0.00
2018-09-06T03:55:25.362Z,0.00
2018-09-06T03:56:25.356Z,0.00
2018-09-06T03:57:25.354Z,0.00
2018-09-06T03:58:25.354Z,0.00
2018-09-06T03:59:25.353Z,0.00
2018-09-06T04:00:25.354Z,0.00
2018-09-06T04:01:25.353Z,0.00
2018-09-06T04:02:25.353Z,0.00
2018-09-06T04:03:25.351Z,0.00
2018-09-06T04:04:25.352Z,0.00
2018-09-06T04:05:25.359Z,0.00
2018-09-06T04:06:25.369Z,0.00
2018-09-06T04:07:25.355Z,0.00
2018-09-06T04:08:25.353Z,0.00
2018-09-06T04:09:25.376Z,0.00
2018-09-06T04:10:25.350Z,0.00
2018-09-06T04:11:25.347Z,0.00
2018-09-06T04:12:25.347Z,0.00
2018-09-06T04:13:25.362Z,4.00
2018-09-06T04:14:25.348Z,0.00
2018-09-06T04:15:25.348Z,0.00
2018-09-06T04:16:25.354Z,4.00
2018-09-06T04:17:25.350Z,0.00
2018-09-06T04:18:25.344Z,4.00
2018-09-06T04:19:25.347Z,4.00
2018-09-06T04:20:25.345Z,8.00
2018-09-06T04:21:25.497Z,4.00
2018-09-06T04:22:25.349Z,8.00
2018-09-06T04:23:25.394Z,8.00
2018-09-06T04:24:27.124Z,8.00
2018-09-06T04:25:25.350Z,12.00
2018-09-06T04:26:25.344Z,12.00
2018-09-06T04:27:25.345Z,16.00
2018-09-06T04:28:25.390Z,20.00
2018-09-06T04:29:25.344Z,20.00
2018-09-06T04:30:25.349Z,24.00
2018-09-06T04:31:25.346Z,24.00
2018-09-06T04:32:25.341Z,28.00
2018-09-06T04:33:25.344Z,32.00
2018-09-06T04:34:25.382Z,32.00
2018-09-06T04:35:25.382Z,36.00
2018-09-06T04:36:25.352Z,40.00
2018-09-06T04:37:25.338Z,48.00
2018-09-06T04:38:25.337Z,52.00
2018-09-06T04:39:25.336Z,56.00
2018-09-06T04:40:25.336Z,60.00
2018-09-06T04:41:25.338Z,64.00
2018-09-06T04:42:25.333Z,68.00
2018-09-06T04:43:25.332Z,72.00
2018-09-06T04:44:25.359Z,80.00
2018-09-06T04:45:25.332Z,88.00
2018-09-06T04:46:25.336Z,92.00
2018-09-06T04:47:25.335Z,96.00
2018-09-06T04:48:25.333Z,104.00
2018-09-06T04:49:25.347Z,112.00
2018-09-06T04:50:25.349Z,120.00
2018-09-06T04:51:25.364Z,128.00
2018-09-06T04:52:25.329Z,136.00
2018-09-06T04:53:25.333Z,140.00
2018-09-06T04:54:25.331Z,152.00
2018-09-06T04:55:25.423Z,160.00
2018-09-06T04:56:25.328Z,168.00
2018-09-06T04:57:25.329Z,176.00
2018-09-06T04:58:25.382Z,188.00
2018-09-06T04:59:25.329Z,196.00
2018-09-06T05:00:25.328Z,208.00
2018-09-06T05:01:25.328Z,220.00
2018-09-06T05:02:25.323Z,232.00
2018-09-06T05:03:25.326Z,244.00
2018-09-06T05:04:25.394Z,252.00
2018-09-06T05:05:25.329Z,264.00
2018-09-06T05:06:25.324Z,280.00
2018-09-06T05:07:25.326Z,296.00
2018-09-06T05:08:25.367Z,308.00
2018-09-06T05:09:25.352Z,328.00
2018-09-06T05:10:25.322Z,344.00
2018-09-06T05:11:25.324Z,360.00
2018-09-06T05:12:25.324Z,372.00
2018-09-06T05:13:25.325Z,392.00
2018-09-06T05:14:25.347Z,408.00
2018-09-06T05:15:25.366Z,424.00
2018-09-06T05:16:25.325Z,440.00
2018-09-06T05:17:25.346Z,460.00
2018-09-06T05:18:25.323Z,476.00
2018-09-06T05:19:25.316Z,492.00
2018-09-06T05:20:25.345Z,504.00
2018-09-06T05:21:25.319Z,524.00
2018-09-06T05:22:25.313Z,540.00
2018-09-06T05:23:25.315Z,552.00
2018-09-06T05:24:25.316Z,568.00
2018-09-06T05:25:25.324Z,588.00
2018-09-06T05:26:25.317Z,604.00
2018-09-06T05:27:25.319Z,620.00
2018-09-06T05:28:25.322Z,640.00
2018-09-06T05:29:25.311Z,656.00
2018-09-06T05:30:25.332Z,672.00
2018-09-06T05:31:25.313Z,688.00
2018-09-06T05:32:25.328Z,700.00
2018-09-06T05:33:25.332Z,716.00
2018-09-06T05:34:25.309Z,736.00
2018-09-06T05:35:25.312Z,752.00
2018-09-06T05:36:25.365Z,776.00
2018-09-06T05:37:25.310Z,796.00
2018-09-06T05:38:25.336Z,820.00
2018-09-06T05:39:25.308Z,840.00
2018-09-06T05:40:25.307Z,856.00
2018-09-06T05:41:25.308Z,876.00
2018-09-06T05:42:25.311Z,888.00
2018-09-06T05:43:25.312Z,900.00
2018-09-06T05:44:25.320Z,920.00
2018-09-06T05:45:25.341Z,940.00
2018-09-06T05:46:25.357Z,960.00
2018-09-06T05:47:25.375Z,968.00
2018-09-06T05:48:25.435Z,984.00
2018-09-06T05:49:25.339Z,996.00
2018-09-06T05:50:25.302Z,1008.00
2018-09-06T05:51:25.307Z,1036.00
2018-09-06T05:52:25.305Z,1060.00
2018-09-06T05:53:25.327Z,1084.00
2018-09-06T05:54:25.304Z,1116.00
2018-09-06T05:55:25.309Z,1152.00
2018-09-06T05:56:25.308Z,1188.00
2018-09-06T05:57:25.310Z,1228.00
2018-09-06T05:58:25.307Z,1260.00
2018-09-06T05:59:25.350Z,1284.00
2018-09-06T06:00:25.343Z,1316.00
2018-09-06T06:01:25.315Z,1344.00
2018-09-06T06:02:25.311Z,1368.00
2018-09-06T06:03:25.335Z,1388.00
2018-09-06T06:04:25.308Z,1416.00
2018-09-06T06:05:25.362Z,1448.00
2018-09-06T06:06:25.339Z,1480.00
2018-09-06T06:07:25.305Z,1516.00
2018-09-06T06:08:25.475Z,1548.00
2018-09-06T06:09:25.310Z,1576.00
2018-09-06T06:10:25.312Z,1592.00
2018-09-06T06:11:25.309Z,1608.00
2018-09-06T06:12:25.310Z,1632.00
2018-09-06T06:13:25.320Z,1660.00
2018-09-06T06:14:25.312Z,1692.00
2018-09-06T06:15:25.311Z,1724.00
2018-09-06T06:16:25.320Z,1756.00
2018-09-06T06:17:25.382Z,1792.00
2018-09-06T06:18:25.315Z,1824.00
2018-09-06T06:19:25.322Z,1856.00
2018-09-06T06:20:25.320Z,1884.00
2018-09-06T06:21:25.372Z,1912.00
2018-09-06T06:22:25.385Z,1936.00
2018-09-06T06:23:25.319Z,1964.00
2018-09-06T06:24:25.325Z,1992.00
2018-09-06T06:25:25.351Z,2020.00
2018-09-06T06:26:25.319Z,2060.00
2018-09-06T06:27:25.331Z,2100.00
2018-09-06T06:28:25.324Z,2136.00
2018-09-06T06:29:25.324Z,2176.00
2018-09-06T06:30:25.336Z,2216.00
2018-09-06T06:31:25.328Z,2252.00
2018-09-06T06:32:25.353Z,2292.00
2018-09-06T06:33:25.327Z,2344.00
2018-09-06T06:34:25.330Z,2656.00
2018-09-06T06:35:25.352Z,3108.00
2018-09-06T06:36:25.336Z,3356.00
2018-09-06T06:37:25.336Z,3440.00
2018-09-06T06:38:25.341Z,3500.00
2018-09-06T06:39:25.338Z,3564.00
2018-09-06T06:40:25.345Z,3596.00
2018-09-06T06:41:25.346Z,3684.00
2018-09-06T06:42:25.381Z,3804.00
2018-09-06T06:43:25.348Z,3908.00
2018-09-06T06:44:25.350Z,4036.00
2018-09-06T06:45:25.355Z,4156.00
2018-09-06T06:46:25.354Z,4244.00
2018-09-06T06:47:25.359Z,4336.00
2018-09-06T06:48:25.367Z,4432.00
2018-09-06T06:49:25.369Z,4508.00
2018-09-06T06:50:25.441Z,4600.00
2018-09-06T06:51:25.373Z,4692.00
2018-09-06T06:52:25.376Z,4776.00
2018-09-06T06:53:25.383Z,4816.00
2018-09-06T06:54:25.386Z,4816.00
2018-09-06T06:55:25.390Z,4784.00
2018-09-06T06:56:25.393Z,4776.00
2018-09-06T06:57:25.412Z,4788.00
2018-09-06T06:58:25.431Z,4768.00
2018-09-06T06:59:25.413Z,4660.00
2018-09-06T07:00:25.457Z,4404.00
2018-09-06T07:01:25.440Z,4156.00
2018-09-06T07:02:25.453Z,4356.00
2018-09-06T07:03:25.428Z,4700.00
2018-09-06T07:04:25.437Z,5048.00
2018-09-06T07:05:25.438Z,4928.00
2018-09-06T07:06:25.505Z,5164.00
2018-09-06T07:07:25.452Z,5128.00
2018-09-06T07:08:25.458Z,5192.00
2018-09-06T07:09:25.462Z,4768.00
2018-09-06T07:10:25.469Z,4332.00
2018-09-06T07:11:25.478Z,3756.00
2018-09-06T07:12:25.476Z,3700.00
2018-09-06T07:13:25.478Z,3812.00
2018-09-06T07:14:25.487Z,3872.00
2018-09-06T07:15:25.500Z,3932.00
2018-09-06T07:16:25.509Z,4072.00
2018-09-06T07:17:25.581Z,4144.00
2018-09-06T07:18:25.643Z,4176.00
2018-09-06T07:19:25.540Z,4164.00
2018-09-06T07:20:25.524Z,4556.00
2018-09-06T07:21:25.532Z,4196.00
2018-09-06T07:22:25.537Z,4056.00
2018-09-06T07:23:25.540Z,3972.00
2018-09-06T07:24:25.554Z,3988.00
2018-09-06T07:25:25.556Z,4016.00
2018-09-06T07:26:25.552Z,4040.00
2018-09-06T07:27:25.570Z,4056.00
2018-09-06T07:28:25.616Z,4100.00
2018-09-06T07:29:25.576Z,4148.00
2018-09-06T07:30:25.657Z,4176.00
2018-09-06T07:31:25.607Z,4292.00
2018-09-06T07:32:25.582Z,4292.00
2018-09-06T07:33:25.593Z,4756.00
2018-09-06T07:34:25.671Z,4456.00
2018-09-06T07:35:25.617Z,4516.00
2018-09-06T07:36:25.640Z,4724.00
2018-09-06T07:37:25.638Z,6724.00
2018-09-06T07:38:25.663Z,7132.00
2018-09-06T07:39:25.648Z,7248.00
2018-09-06T07:40:25.628Z,7596.00
2018-09-06T07:41:25.663Z,7716.00
2018-09-06T07:42:25.663Z,7780.00
2018-09-06T07:43:27.584Z,7812.00
2018-09-06T07:44:25.671Z,8128.00
2018-09-06T07:45:25.657Z,8300.00
2018-09-06T07:46:25.681Z,8580.00
2018-09-06T07:47:25.783Z,9116.00
2018-09-06T07:48:26.623Z,9744.00
2018-09-06T07:49:25.707Z,10036.00
2018-09-06T07:50:25.698Z,10004.00
2018-09-06T07:51:25.776Z,9932.00
2018-09-06T07:52:25.785Z,10120.00
2018-09-06T07:53:25.776Z,10432.00
2018-09-06T07:54:25.778Z,10576.00
2018-09-06T07:55:25.798Z,10848.00
2018-09-06T07:56:25.890Z,11260.00
2018-09-06T07:57:25.753Z,12052.00
2018-09-06T07:58:25.757Z,13284.00
2018-09-06T07:59:25.764Z,14368.00
2018-09-06T08:00:25.946Z,15104.00
2018-09-06T08:01:25.872Z,15136.00
2018-09-06T08:02:25.832Z,14560.00
2018-09-06T08:03:25.966Z,14592.00
2018-09-06T08:04:25.851Z,16096.00
2018-09-06T08:05:27.673Z,15872.00
2018-09-06T08:06:33.009Z,15680.00
2018-09-06T08:08:19.285Z,15104.00
2018-09-06T08:09:19.243Z,14944.00
2018-09-06T08:11:15.379Z,14784.00
2018-09-06T08:12:13.357Z,14624.00
2018-09-06T08:13:15.245Z,14624.00
2018-09-06T08:14:13.355Z,14528.00
2018-09-06T08:15:13.483Z,14688.00
2018-09-06T08:16:13.386Z,14624.00
2018-09-06T08:17:13.521Z,14624.00
2018-09-06T08:18:17.695Z,15104.00
2018-09-06T08:19:16.061Z,14592.00
2018-09-06T08:20:16.193Z,13248.00
2018-09-06T08:23:24.401Z,14688.00
2018-09-06T08:27:05.089Z,13944.00
2018-09-06T08:27:57.997Z,13832.00
2018-09-06T08:28:57.322Z,13992.00
2018-09-06T08:31:40.846Z,15072.00
2018-09-06T08:32:41.568Z,14880.00
2018-09-06T08:33:40.674Z,14496.00
2018-09-06T08:34:40.861Z,14496.00
2018-09-06T08:35:42.787Z,14176.00
2018-09-06T08:40:00.680Z,15008.00
2018-09-06T08:44:48.006Z,16704.00
2018-09-06T08:45:25.283Z,17088.00
2018-09-06T09:00:53.837Z,11056.00
2018-09-06T10:35:09.236Z,6520.00
2018-09-06T10:41:42.020Z,4836.00
2018-09-06T10:42:33.577Z,4636.00
2018-09-06T10:43:30.400Z,4492.00
2018-09-06T10:44:30.549Z,4428.00
2018-09-06T10:45:30.360Z,4432.00
2018-09-06T10:46:38.559Z,4384.00
2018-09-06T10:48:24.668Z,4264.00
2018-09-06T10:49:23.537Z,4276.00
2018-09-06T10:51:17.526Z,4344.00
2018-09-06T10:52:17.369Z,4424.00
2018-09-06T10:54:12.826Z,4460.00
2018-09-06T10:55:12.688Z,4440.00
2018-09-06T10:56:12.564Z,4460.00
2018-09-06T10:57:14.360Z,4496.00
2018-09-06T10:58:13.026Z,4504.00
2018-09-06T10:59:12.709Z,4484.00
2018-09-06T11:00:12.674Z,4428.00
2018-09-06T11:01:12.625Z,4360.00
2018-09-06T11:02:14.274Z,4440.00
2018-09-06T11:03:12.621Z,4604.00
2018-09-06T11:04:20.579Z,4748.00
2018-09-06T11:06:05.662Z,5156.00
2018-09-06T11:07:05.697Z,5756.00
2018-09-06T11:08:59.213Z,5936.00
2018-09-06T11:09:59.168Z,5760.00
2018-09-06T11:11:52.726Z,5116.00
2018-09-06T11:12:52.536Z,4744.00
2018-09-06T11:14:45.612Z,4864.00
2018-09-06T11:15:45.438Z,4856.00
2018-09-06T11:17:38.958Z,5112.00
2018-09-06T11:18:39.858Z,5648.00
2018-09-06T11:19:38.923Z,5632.00
2018-09-06T11:20:38.892Z,5680.00
2018-09-06T11:21:39.019Z,5728.00
2018-09-06T11:22:51.325Z,5744.00
2018-09-06T11:23:40.184Z,5704.00
2018-09-06T11:24:39.209Z,5748.00
2018-09-06T11:25:40.864Z,5768.00
2018-09-06T11:26:38.919Z,5696.00
2018-09-06T11:27:39.019Z,5616.00
2018-09-06T11:28:38.889Z,5608.00
2018-09-06T11:29:38.891Z,5584.00
2018-09-06T11:30:38.898Z,5156.00
2018-09-06T11:31:38.904Z,5084.00
2018-09-06T11:32:38.998Z,5208.00
2018-09-06T11:33:38.991Z,5432.00
2018-09-06T11:34:38.983Z,5260.00
2018-09-06T11:35:38.981Z,5440.00
2018-09-06T11:36:39.067Z,5432.00
2018-09-06T11:37:40.917Z,5408.00
2018-09-06T11:38:40.899Z,5348.00
2018-09-06T11:39:40.851Z,4656.00
2018-09-06T11:40:39.012Z,4564.00
2018-09-06T11:41:39.012Z,5036.00
2018-09-06T11:42:39.069Z,4916.00
2018-09-06T11:43:39.037Z,4828.00
2018-09-06T11:44:40.849Z,4800.00
2018-09-06T11:45:39.112Z,4800.00
2018-09-06T11:46:39.902Z,4760.00
2018-09-06T11:47:39.105Z,4324.00
2018-09-06T11:48:39.087Z,4068.00
2018-09-06T11:49:39.144Z,4096.00
2018-09-06T11:50:39.150Z,4168.00
2018-09-06T11:51:39.076Z,4524.00
2018-09-06T11:52:39.084Z,4512.00
2018-09-06T11:53:39.115Z,4120.00
2018-09-06T11:54:39.112Z,4068.00
2018-09-06T11:55:39.099Z,4112.00
2018-09-06T11:56:42.793Z,3876.00
2018-09-06T11:57:40.827Z,3872.00
2018-09-06T11:58:40.332Z,3888.00
2018-09-06T11:59:40.842Z,3856.00
2018-09-06T12:00:48.460Z,3864.00
2018-09-06T12:02:44.049Z,3896.00
2018-09-06T12:03:35.325Z,3892.00
2018-09-06T12:05:08.935Z,3924.00
2018-09-06T12:06:29.581Z,4072.00
2018-09-06T12:07:29.515Z,4160.00
2018-09-06T12:08:33.131Z,4168.00
2018-09-06T12:09:29.468Z,4144.00
2018-09-06T12:10:29.481Z,4152.00
2018-09-06T12:11:29.413Z,4236.00
2018-09-06T12:12:29.415Z,4336.00
2018-09-06T12:13:30.548Z,4352.00
2018-09-06T12:14:29.444Z,4324.00
2018-09-06T12:15:29.403Z,4328.00
2018-09-06T12:16:29.421Z,4352.00
2018-09-06T12:17:29.478Z,4308.00
2018-09-06T12:18:29.423Z,4204.00
2018-09-06T12:19:29.454Z,4148.00
2018-09-06T12:20:29.551Z,4116.00
2018-09-06T12:21:29.474Z,4072.00
2018-09-06T12:22:29.452Z,3968.00
2018-09-06T12:23:32.169Z,3896.00
2018-09-06T12:24:36.749Z,3880.00
2018-09-06T12:25:29.920Z,3752.00
2018-09-06T12:26:29.570Z,3684.00
2018-09-06T12:27:29.583Z,3624.00
2018-09-06T12:28:29.886Z,3640.00
2018-09-06T12:29:29.689Z,3656.00
2018-09-06T12:30:29.524Z,3684.00
2018-09-06T12:31:29.583Z,3736.00
2018-09-06T12:32:29.662Z,3792.00
2018-09-06T12:33:29.559Z,3888.00
2018-09-06T12:34:29.541Z,3916.00
2018-09-06T12:35:29.649Z,4084.00
2018-09-06T12:36:29.560Z,3900.00
2018-09-06T12:37:29.590Z,4200.00
2018-09-06T12:38:29.568Z,4188.00
2018-09-06T12:39:29.580Z,3828.00
2018-09-06T12:40:29.584Z,3740.00
2018-09-06T12:41:29.592Z,3724.00
2018-09-06T12:42:29.692Z,3700.00
2018-09-06T12:43:29.638Z,3708.00
2018-09-06T12:44:29.617Z,3724.00
2018-09-06T12:45:29.625Z,3864.00
2018-09-06T12:46:29.633Z,4080.00
2018-09-06T12:47:37.046Z,4236.00
2018-09-06T12:49:23.892Z,4188.00
2018-09-06T12:52:15.502Z,3296.00
2018-09-06T12:53:06.535Z,3212.00
2018-09-06T12:55:04.511Z,3076.00
2018-09-06T12:56:04.142Z,3008.00
2018-09-06T12:57:58.725Z,2916.00
2018-09-06T12:58:58.876Z,2872.00
2018-09-06T12:59:58.727Z,2828.00
2018-09-06T13:00:58.741Z,2780.00
2018-09-06T13:01:58.807Z,2744.00
2018-09-06T13:02:58.699Z,2712.00
2018-09-06T13:03:58.705Z,2672.00
2018-09-06T13:05:05.945Z,2636.00
2018-09-06T13:06:52.364Z,2688.00
2018-09-06T13:07:52.697Z,3316.00
2018-09-06T13:08:52.285Z,3328.00
2018-09-06T13:09:52.189Z,3264.00
2018-09-06T13:10:52.183Z,3072.00
2018-09-06T13:11:52.161Z,2712.00
2018-09-06T13:12:52.197Z,2904.00
2018-09-06T13:13:52.179Z,2456.00
2018-09-06T13:14:52.192Z,2360.00
2018-09-06T13:15:52.265Z,2288.00
2018-09-06T13:16:52.282Z,2248.00
2018-09-06T13:17:52.204Z,2224.00
2018-09-06T13:18:52.253Z,2208.00
2018-09-06T13:19:52.236Z,2220.00
2018-09-06T13:20:52.253Z,2240.00
2018-09-06T13:21:52.245Z,2264.00
2018-09-06T13:22:59.449Z,2704.00
2018-09-06T13:24:45.868Z,2856.00
2018-09-06T13:25:45.781Z,2832.00
2018-09-06T13:27:39.860Z,2448.00
2018-09-06T13:28:39.689Z,2280.00
2018-09-06T13:30:32.732Z,2256.00
2018-09-06T13:31:32.650Z,2612.00
2018-09-06T13:32:32.508Z,2576.00
2018-09-06T13:33:32.486Z,2376.00
2018-09-06T13:34:32.506Z,2404.00
2018-09-06T13:35:32.962Z,2160.00
2018-09-06T13:36:32.468Z,2064.00
2018-09-06T13:37:32.473Z,2044.00
2018-09-06T13:38:32.481Z,2052.00
2018-09-06T13:39:32.521Z,2088.00
2018-09-06T13:40:32.546Z,2148.00
2018-09-06T13:41:32.500Z,2224.00
2018-09-06T13:42:32.516Z,2364.00
2018-09-06T13:43:32.638Z,2460.00
2018-09-06T13:44:32.549Z,2392.00
2018-09-06T13:45:32.529Z,2384.00
2018-09-06T13:46:32.535Z,2512.00
2018-09-06T13:47:32.550Z,2284.00
2018-09-06T13:48:32.546Z,2324.00
2018-09-06T13:49:32.552Z,2548.00
2018-09-06T13:50:32.580Z,2484.00
2018-09-06T13:51:32.570Z,2380.00
2018-09-06T13:52:32.575Z,2428.00
2018-09-06T13:53:32.610Z,2372.00
2018-09-06T13:54:32.584Z,2280.00
2018-09-06T13:55:32.602Z,2220.00
2018-09-06T13:56:32.714Z,2140.00
2018-09-06T13:57:32.620Z,2060.00
2018-09-06T13:58:32.691Z,2004.00
2018-09-06T13:59:32.627Z,1940.00
2018-09-06T14:00:32.633Z,1888.00
2018-09-06T14:01:32.637Z,1848.00
2018-09-06T14:02:32.765Z,1828.00
2018-09-06T14:03:32.708Z,1784.00
2018-09-06T14:04:32.731Z,1756.00
2018-09-06T14:05:32.672Z,1724.00
2018-09-06T14:06:32.721Z,1700.00
2018-09-06T14:07:32.754Z,1680.00
2018-09-06T14:08:32.752Z,1672.00
2018-09-06T14:09:32.702Z,1652.00
2018-09-06T14:10:32.757Z,1636.00
2018-09-06T14:11:32.711Z,1632.00
2018-09-06T14:12:32.710Z,1632.00
2018-09-06T14:13:32.719Z,1624.00
2018-09-06T14:14:32.722Z,1624.00
2018-09-06T14:15:32.760Z,1628.00
2018-09-06T14:16:32.850Z,1628.00
2018-09-06T14:17:33.532Z,1624.00
2018-09-06T14:18:32.754Z,1616.00
2018-09-06T14:19:32.832Z,1616.00
2018-09-06T14:20:32.838Z,1616.00
2018-09-06T14:21:32.769Z,1628.00
2018-09-06T14:22:32.781Z,1636.00
2018-09-06T14:23:32.930Z,1644.00
2018-09-06T14:24:33.677Z,1660.00
2018-09-06T14:25:32.890Z,1692.00
2018-09-06T14:26:32.871Z,1724.00
2018-09-06T14:27:32.822Z,1760.00
2018-09-06T14:28:32.822Z,1796.00
2018-09-06T14:29:32.819Z,1836.00
2018-09-06T14:30:32.826Z,1872.00
2018-09-06T14:31:32.839Z,1900.00
2018-09-06T14:32:32.868Z,1916.00
2018-09-06T14:33:32.849Z,1936.00
2018-09-06T14:34:32.855Z,1960.00
2018-09-06T14:35:32.866Z,1968.00
2018-09-06T14:36:32.869Z,1956.00
2018-09-06T14:37:32.875Z,1936.00
2018-09-06T14:38:32.916Z,1912.00
2018-09-06T14:39:32.889Z,1880.00
2018-09-06T14:40:32.898Z,1860.00
2018-09-06T14:41:32.907Z,1840.00
2018-09-06T14:42:32.932Z,1808.00
2018-09-06T14:43:32.923Z,1796.00
2018-09-06T14:44:32.950Z,1796.00
2018-09-06T14:45:32.928Z,1796.00
2018-09-06T14:46:32.933Z,1772.00
2018-09-06T14:47:32.946Z,1780.00
2018-09-06T14:48:32.948Z,1756.00
2018-09-06T14:49:32.953Z,1716.00
2018-09-06T14:50:32.983Z,1680.00
2018-09-06T14:51:32.967Z,1624.00
2018-09-06T14:52:33.081Z,1592.00
2018-09-06T14:53:33.006Z,1472.00
2018-09-06T14:54:33.041Z,1432.00
2018-09-06T14:55:32.991Z,1392.00
2018-09-06T14:56:33.058Z,1348.00